Time;durP1;ratioP1;P1;durP2;ratioP2;P2;SDS_P1;SDS_P2;PMS_P1;PMS_P2;Temp;Humidity;BMP_temperature;BMP_pressure;BME280_temperature;BME280_humidity;BME280_pressure;Samples;Min_cycle;Max_cycle;Signal;HPM_P1;HPM_P2
2022/10/12 00:00:48;;;;;;;;;;;21.90;50.90;;;;;;494117;241;1278;-53
2022/10/12 00:02:49;;;;;;;;;;;21.90;50.90;;;;;;494136;241;1227;-54
2022/10/12 00:04:50;;;;;;;;;;;21.90;50.90;;;;;;494087;241;1228;-53
2022/10/12 00:06:52;;;;;;;;;;;21.90;50.90;;;;;;494238;241;1245;-53
2022/10/12 00:08:53;;;;;;;;;;;21.90;50.90;;;;;;494240;241;1314;-54
2022/10/12 00:10:54;;;;;;;;;;;21.90;50.90;;;;;;494255;241;1192;-53
2022/10/12 00:12:56;;;;;;;;;;;21.90;50.90;;;;;;493905;241;1179;-54
2022/10/12 00:14:57;;;;;;;;;;;21.90;50.90;;;;;;494265;241;1265;-53
2022/10/12 00:16:58;;;;;;;;;;;21.90;50.90;;;;;;493780;241;2186;-53
2022/10/12 00:19:00;;;;;;;;;;;21.90;50.90;;;;;;493808;241;1194;-54
2022/10/12 00:21:01;;;;;;;;;;;22.00;50.90;;;;;;493711;241;1197;-53
2022/10/12 00:23:02;;;;;;;;;;;22.00;50.90;;;;;;494185;241;1207;-53
2022/10/12 00:25:04;;;;;;;;;;;21.90;50.80;;;;;;494238;241;1182;-54
2022/10/12 00:27:05;;;;;;;;;;;21.90;50.90;;;;;;493719;241;1229;-53
2022/10/12 00:29:06;;;;;;;;;;;21.90;50.90;;;;;;493751;241;1311;-54
2022/10/12 00:31:08;;;;;;;;;;;21.90;50.90;;;;;;493574;241;1319;-54
2022/10/12 00:33:09;;;;;;;;;;;21.90;50.90;;;;;;493735;241;1220;-54
2022/10/12 00:35:10;;;;;;;;;;;21.90;50.90;;;;;;494051;241;1420;-54
2022/10/12 00:37:12;;;;;;;;;;;21.90;51.00;;;;;;493990;241;2159;-54
2022/10/12 00:39:13;;;;;;;;;;;21.90;51.00;;;;;;493790;241;1213;-54
2022/10/12 00:41:14;;;;;;;;;;;21.90;51.00;;;;;;493793;241;1229;-53
2022/10/12 00:43:15;;;;;;;;;;;21.90;51.00;;;;;;493777;241;1497;-53
2022/10/12 00:45:17;;;;;;;;;;;21.90;51.00;;;;;;493775;241;1333;-53
2022/10/12 00:47:18;;;;;;;;;;;21.90;50.90;;;;;;493789;241;1194;-54
2022/10/12 00:49:19;;;;;;;;;;;21.90;50.90;;;;;;493787;241;1239;-53
2022/10/12 00:51:21;;;;;;;;;;;21.90;50.80;;;;;;493750;241;1222;-53
2022/10/12 00:53:22;;;;;;;;;;;21.90;50.80;;;;;;493769;241;1235;-53
2022/10/12 00:55:24;;;;;;;;;;;21.90;50.90;;;;;;494088;241;1410;-53
2022/10/12 00:57:25;;;;;;;;;;;21.90;50.90;;;;;;494257;241;2143;-54
2022/10/12 00:59:26;;;;;;;;;;;21.90;50.90;;;;;;493930;241;1384;-53
2022/10/12 01:01:28;;;;;;;;;;;21.90;50.90;;;;;;494015;241;1338;-53
2022/10/12 01:03:29;;;;;;;;;;;21.90;50.80;;;;;;493902;241;1176;-54
2022/10/12 01:05:30;;;;;;;;;;;21.90;50.80;;;;;;493790;241;1448;-53
2022/10/12 01:07:31;;;;;;;;;;;22.00;50.90;;;;;;494048;241;1247;-54
2022/10/12 01:09:33;;;;;;;;;;;21.90;50.90;;;;;;493975;241;1226;-53
2022/10/12 01:11:34;;;;;;;;;;;21.90;50.90;;;;;;493900;241;1283;-54
2022/10/12 01:13:35;;;;;;;;;;;21.90;50.90;;;;;;494200;241;1258;-53
2022/10/12 01:15:37;;;;;;;;;;;22.00;51.00;;;;;;493792;241;1238;-53
2022/10/12 01:17:38;;;;;;;;;;;21.90;50.90;;;;;;494252;241;2151;-53
2022/10/12 01:19:39;;;;;;;;;;;21.90;50.90;;;;;;493799;241;1217;-53
2022/10/12 01:21:41;;;;;;;;;;;21.90;50.90;;;;;;493972;241;1263;-53
2022/10/12 01:23:42;;;;;;;;;;;21.90;50.90;;;;;;494273;241;1309;-53
2022/10/12 01:25:44;;;;;;;;;;;22.00;50.90;;;;;;493799;241;1194;-53
2022/10/12 01:27:45;;;;;;;;;;;21.90;50.90;;;;;;494196;241;1145;-53
2022/10/12 01:29:46;;;;;;;;;;;21.90;50.90;;;;;;494000;241;1145;-54
2022/10/12 01:31:48;;;;;;;;;;;22.00;50.90;;;;;;494242;241;1258;-54
2022/10/12 01:33:49;;;;;;;;;;;21.90;50.80;;;;;;494287;241;1346;-54
2022/10/12 01:35:50;;;;;;;;;;;21.90;50.80;;;;;;494283;241;1178;-52
2022/10/12 01:37:51;;;;;;;;;;;21.90;50.90;;;;;;493960;241;2164;-54
2022/10/12 01:39:53;;;;;;;;;;;21.90;50.90;;;;;;494024;241;1164;-53
2022/10/12 01:41:54;;;;;;;;;;;21.90;50.90;;;;;;494231;241;1295;-54
2022/10/12 01:43:55;;;;;;;;;;;21.90;50.90;;;;;;493813;241;1189;-53
2022/10/12 01:45:57;;;;;;;;;;;21.90;50.90;;;;;;493778;241;1187;-52
2022/10/12 01:47:58;;;;;;;;;;;21.90;50.90;;;;;;493929;241;1178;-53
2022/10/12 01:50:00;;;;;;;;;;;21.90;50.90;;;;;;494108;241;1269;-53
2022/10/12 01:52:01;;;;;;;;;;;21.90;50.90;;;;;;494285;241;1088;-54
2022/10/12 01:54:02;;;;;;;;;;;21.90;50.90;;;;;;493832;241;1247;-53
2022/10/12 01:56:03;;;;;;;;;;;21.90;50.90;;;;;;494196;241;1125;-53
2022/10/12 01:58:05;;;;;;;;;;;21.90;50.90;;;;;;494294;241;2117;-53
2022/10/12 02:00:07;;;;;;;;;;;21.90;50.90;;;;;;493958;241;1210;-53
2022/10/12 02:02:08;;;;;;;;;;;21.90;50.90;;;;;;494249;241;1180;-53
2022/10/12 02:04:09;;;;;;;;;;;21.90;50.90;;;;;;493816;241;1183;-52
2022/10/12 02:06:10;;;;;;;;;;;21.90;50.90;;;;;;494254;241;1385;-53
2022/10/12 02:08:12;;;;;;;;;;;21.90;50.90;;;;;;493801;241;1422;-53
2022/10/12 02:10:13;;;;;;;;;;;21.90;50.90;;;;;;494263;241;1289;-54
2022/10/12 02:12:14;;;;;;;;;;;21.90;50.90;;;;;;493987;241;1160;-54
2022/10/12 02:14:16;;;;;;;;;;;21.90;50.90;;;;;;493831;241;1564;-53
2022/10/12 02:16:17;;;;;;;;;;;21.90;50.90;;;;;;493780;241;1238;-53
2022/10/12 02:18:18;;;;;;;;;;;21.90;50.90;;;;;;494249;241;2174;-54
2022/10/12 02:20:20;;;;;;;;;;;21.90;51.00;;;;;;493782;241;1356;-54
2022/10/12 02:22:21;;;;;;;;;;;21.90;50.90;;;;;;493886;241;1277;-54
2022/10/12 02:24:22;;;;;;;;;;;21.90;50.90;;;;;;493979;241;1200;-53
2022/10/12 02:26:24;;;;;;;;;;;21.90;50.90;;;;;;494252;241;1181;-54
2022/10/12 02:28:25;;;;;;;;;;;21.90;51.00;;;;;;494103;241;1238;-53
2022/10/12 02:30:26;;;;;;;;;;;21.90;50.90;;;;;;493764;241;1273;-54
2022/10/12 02:32:28;;;;;;;;;;;21.90;51.00;;;;;;494271;241;1212;-54
2022/10/12 02:34:29;;;;;;;;;;;21.90;51.00;;;;;;493828;241;1190;-54
2022/10/12 02:36:30;;;;;;;;;;;21.90;51.00;;;;;;493789;241;1369;-53
2022/10/12 02:38:32;;;;;;;;;;;21.90;50.90;;;;;;493783;241;2207;-53
2022/10/12 02:40:33;;;;;;;;;;;21.90;51.00;;;;;;493887;241;1176;-54
2022/10/12 02:42:34;;;;;;;;;;;21.90;51.00;;;;;;493808;241;1251;-54
2022/10/12 02:44:36;;;;;;;;;;;21.90;50.90;;;;;;493790;241;1276;-53
2022/10/12 02:46:37;;;;;;;;;;;22.00;51.00;;;;;;493805;241;1229;-53
2022/10/12 02:48:38;;;;;;;;;;;21.90;50.90;;;;;;493816;241;1262;-53
2022/10/12 02:50:40;;;;;;;;;;;21.90;50.90;;;;;;494207;241;1226;-53
2022/10/12 02:52:41;;;;;;;;;;;21.90;50.90;;;;;;493791;241;1295;-53
2022/10/12 02:54:42;;;;;;;;;;;21.90;51.00;;;;;;494172;241;1261;-54
2022/10/12 02:56:44;;;;;;;;;;;21.90;51.00;;;;;;494228;241;2144;-53
2022/10/12 02:58:45;;;;;;;;;;;21.90;51.00;;;;;;494065;241;1198;-53
2022/10/12 03:00:47;;;;;;;;;;;21.90;51.00;;;;;;493723;241;1308;-53
2022/10/12 03:02:48;;;;;;;;;;;21.90;51.00;;;;;;494078;241;1321;-54
2022/10/12 03:04:49;;;;;;;;;;;21.90;51.00;;;;;;494238;241;1275;-54
2022/10/12 03:06:51;;;;;;;;;;;21.90;51.00;;;;;;494254;241;1291;-53
2022/10/12 03:08:55;;;;;;;;;;;21.90;50.90;;;;;;494054;241;1223;-54
2022/10/12 03:10:54;;;;;;;;;;;21.90;50.90;;;;;;494024;241;1825;-53
2022/10/12 03:12:55;;;;;;;;;;;21.90;50.90;;;;;;493847;241;1187;-54
2022/10/12 03:14:56;;;;;;;;;;;21.90;50.90;;;;;;493757;241;1233;-53
2022/10/12 03:16:58;;;;;;;;;;;21.90;50.90;;;;;;494255;241;2202;-53
2022/10/12 03:18:59;;;;;;;;;;;21.90;50.90;;;;;;493783;241;1507;-53
2022/10/12 03:21:00;;;;;;;;;;;21.90;50.90;;;;;;493793;241;1196;-53
2022/10/12 03:23:02;;;;;;;;;;;21.90;50.80;;;;;;494273;241;1200;-54
2022/10/12 03:25:03;;;;;;;;;;;22.00;50.90;;;;;;494246;241;1146;-53
2022/10/12 03:27:04;;;;;;;;;;;21.90;50.90;;;;;;494131;241;1328;-54
2022/10/12 03:29:08;;;;;;;;;;;21.90;50.90;;;;;;493879;241;1364;-53
2022/10/12 03:31:07;;;;;;;;;;;21.90;50.90;;;;;;493794;241;1906;-53
2022/10/12 03:33:08;;;;;;;;;;;21.90;50.90;;;;;;493940;241;1292;-54
2022/10/12 03:35:10;;;;;;;;;;;21.90;50.90;;;;;;494003;241;1219;-53
2022/10/12 03:37:11;;;;;;;;;;;21.90;50.90;;;;;;494223;241;2190;-53
2022/10/12 03:39:12;;;;;;;;;;;21.90;50.90;;;;;;494277;241;1221;-53
2022/10/12 03:41:14;;;;;;;;;;;21.90;50.90;;;;;;493926;241;1549;-53
2022/10/12 03:43:16;;;;;;;;;;;21.90;50.80;;;;;;494174;241;1325;-54
2022/10/12 03:45:16;;;;;;;;;;;21.90;50.90;;;;;;493959;241;1350;-54
2022/10/12 03:47:18;;;;;;;;;;;22.00;50.90;;;;;;493959;241;1343;-53
2022/10/12 03:49:19;;;;;;;;;;;21.90;50.90;;;;;;494259;241;1184;-54
2022/10/12 03:51:20;;;;;;;;;;;21.90;50.90;;;;;;494064;241;1285;-54
2022/10/12 03:53:22;;;;;;;;;;;21.90;50.90;;;;;;493778;241;1301;-53
2022/10/12 03:55:23;;;;;;;;;;;21.90;50.90;;;;;;494093;241;1298;-53
2022/10/12 03:57:24;;;;;;;;;;;21.90;50.90;;;;;;494235;241;2210;-53
2022/10/12 03:59:26;;;;;;;;;;;21.90;50.80;;;;;;493851;241;1259;-53
2022/10/12 04:01:27;;;;;;;;;;;21.90;50.80;;;;;;493775;241;1307;-53
2022/10/12 04:03:29;;;;;;;;;;;22.00;50.90;;;;;;494192;241;1213;-53
2022/10/12 04:05:30;;;;;;;;;;;21.90;50.80;;;;;;493911;241;1345;-53
2022/10/12 04:07:31;;;;;;;;;;;21.90;50.90;;;;;;494270;241;1223;-54
2022/10/12 04:09:33;;;;;;;;;;;21.90;50.90;;;;;;494243;241;1179;-53
2022/10/12 04:11:34;;;;;;;;;;;21.90;50.90;;;;;;493797;241;1120;-53
2022/10/12 04:13:35;;;;;;;;;;;21.90;50.90;;;;;;494210;241;1117;-53
2022/10/12 04:15:37;;;;;;;;;;;21.90;50.90;;;;;;494159;241;1229;-53
2022/10/12 04:17:38;;;;;;;;;;;21.90;50.90;;;;;;494022;241;2173;-53
2022/10/12 04:19:39;;;;;;;;;;;21.90;50.80;;;;;;494241;241;1171;-53
2022/10/12 04:21:41;;;;;;;;;;;22.00;51.00;;;;;;494074;241;1230;-53
2022/10/12 04:23:42;;;;;;;;;;;21.90;50.90;;;;;;493751;241;1212;-53
2022/10/12 04:25:43;;;;;;;;;;;21.90;50.80;;;;;;494136;241;1214;-54
2022/10/12 04:27:45;;;;;;;;;;;21.90;50.80;;;;;;494014;241;1175;-54
2022/10/12 04:29:46;;;;;;;;;;;21.90;50.80;;;;;;493663;241;1280;-54
2022/10/12 04:31:47;;;;;;;;;;;21.90;50.80;;;;;;493800;241;1435;-52
2022/10/12 04:33:49;;;;;;;;;;;21.90;50.90;;;;;;494209;241;1299;-54
2022/10/12 04:35:50;;;;;;;;;;;22.00;50.90;;;;;;493950;241;1307;-54
2022/10/12 04:37:51;;;;;;;;;;;22.00;50.90;;;;;;494155;241;2166;-54
2022/10/12 04:39:53;;;;;;;;;;;21.90;50.80;;;;;;494217;241;1194;-54
2022/10/12 04:41:54;;;;;;;;;;;21.90;50.80;;;;;;494232;241;1244;-54
2022/10/12 04:43:56;;;;;;;;;;;21.90;50.80;;;;;;494217;241;1180;-53
2022/10/12 04:45:57;;;;;;;;;;;21.90;50.80;;;;;;493769;241;1208;-54
2022/10/12 04:47:58;;;;;;;;;;;21.90;50.80;;;;;;493813;241;1167;-54
2022/10/12 04:50:00;;;;;;;;;;;21.90;50.80;;;;;;494052;241;1225;-54
2022/10/12 04:52:01;;;;;;;;;;;21.90;50.80;;;;;;494121;241;1217;-53
2022/10/12 04:54:02;;;;;;;;;;;21.90;50.80;;;;;;494228;241;1189;-53
2022/10/12 04:56:04;;;;;;;;;;;21.90;50.80;;;;;;493890;241;1289;-53
2022/10/12 04:58:05;;;;;;;;;;;22.00;50.90;;;;;;493929;241;2166;-53
2022/10/12 05:00:06;;;;;;;;;;;22.00;50.90;;;;;;493971;241;1265;-54
2022/10/12 05:02:08;;;;;;;;;;;21.90;50.80;;;;;;493845;241;1328;-53
2022/10/12 05:04:09;;;;;;;;;;;21.90;50.90;;;;;;493716;241;1248;-54
2022/10/12 05:06:10;;;;;;;;;;;21.90;50.80;;;;;;493695;241;1299;-53
2022/10/12 05:08:12;;;;;;;;;;;22.00;50.90;;;;;;494165;241;1246;-53
2022/10/12 05:10:13;;;;;;;;;;;22.00;50.90;;;;;;493710;241;1308;-54
2022/10/12 05:12:15;;;;;;;;;;;21.90;50.80;;;;;;493819;241;1233;-53
2022/10/12 05:14:16;;;;;;;;;;;21.90;50.80;;;;;;493838;241;1250;-53
2022/10/12 05:16:17;;;;;;;;;;;21.90;50.80;;;;;;494006;241;1370;-53
2022/10/12 05:18:18;;;;;;;;;;;22.00;50.90;;;;;;494140;241;2159;-53
2022/10/12 05:20:20;;;;;;;;;;;21.90;50.80;;;;;;493728;241;1238;-53
2022/10/12 05:22:21;;;;;;;;;;;22.00;50.80;;;;;;493771;241;1251;-53
2022/10/12 05:24:23;;;;;;;;;;;22.00;50.90;;;;;;494121;241;1194;-53
2022/10/12 05:26:24;;;;;;;;;;;21.90;50.80;;;;;;493751;241;1298;-53
2022/10/12 05:28:25;;;;;;;;;;;22.00;50.90;;;;;;493885;241;1225;-53
2022/10/12 05:30:27;;;;;;;;;;;21.90;50.80;;;;;;493779;241;1190;-55
2022/10/12 05:32:28;;;;;;;;;;;21.90;50.80;;;;;;493870;241;1230;-54
2022/10/12 05:34:29;;;;;;;;;;;21.90;50.80;;;;;;493730;241;1215;-53
2022/10/12 05:36:31;;;;;;;;;;;21.90;50.80;;;;;;493802;241;1207;-54
2022/10/12 05:38:32;;;;;;;;;;;21.90;50.80;;;;;;493945;241;2164;-53
2022/10/12 05:40:33;;;;;;;;;;;22.00;50.90;;;;;;494232;241;1222;-53
2022/10/12 05:42:34;;;;;;;;;;;21.90;50.90;;;;;;493945;241;1246;-54
2022/10/12 05:44:36;;;;;;;;;;;21.90;50.90;;;;;;493638;241;1191;-53
2022/10/12 05:46:37;;;;;;;;;;;21.90;50.90;;;;;;493693;241;1185;-53
2022/10/12 05:48:38;;;;;;;;;;;21.90;50.80;;;;;;493885;241;1404;-53
2022/10/12 05:50:40;;;;;;;;;;;22.00;50.90;;;;;;493753;241;1329;-53
2022/10/12 05:52:41;;;;;;;;;;;22.00;50.90;;;;;;494129;241;1387;-54
2022/10/12 05:54:42;;;;;;;;;;;21.90;50.80;;;;;;493901;241;1229;-53
2022/10/12 05:56:44;;;;;;;;;;;22.00;50.90;;;;;;493785;241;1163;-53
2022/10/12 05:58:45;;;;;;;;;;;21.90;50.80;;;;;;493684;241;2195;-53
2022/10/12 06:00:46;;;;;;;;;;;21.90;50.90;;;;;;493757;241;1360;-53
2022/10/12 06:02:48;;;;;;;;;;;22.00;51.00;;;;;;493590;241;1202;-54
2022/10/12 06:04:49;;;;;;;;;;;21.90;50.90;;;;;;493637;241;1191;-54
2022/10/12 06:06:50;;;;;;;;;;;22.00;50.90;;;;;;493745;241;1319;-54
2022/10/12 06:08:52;;;;;;;;;;;21.90;50.80;;;;;;493723;241;1238;-54
2022/10/12 06:10:53;;;;;;;;;;;21.90;50.80;;;;;;493660;241;1334;-53
2022/10/12 06:12:54;;;;;;;;;;;21.90;50.90;;;;;;494166;241;1251;-53
2022/10/12 06:14:56;;;;;;;;;;;21.90;50.80;;;;;;493496;241;1242;-53
2022/10/12 06:16:57;;;;;;;;;;;22.00;50.80;;;;;;493607;241;1313;-53
2022/10/12 06:18:58;;;;;;;;;;;22.00;50.90;;;;;;493843;241;2183;-53
2022/10/12 06:21:00;;;;;;;;;;;22.00;50.90;;;;;;493952;241;1283;-54
2022/10/12 06:23:01;;;;;;;;;;;21.90;50.80;;;;;;493640;241;1192;-53
2022/10/12 06:25:02;;;;;;;;;;;22.00;50.90;;;;;;493912;241;1288;-53
2022/10/12 06:27:04;;;;;;;;;;;21.90;50.80;;;;;;493652;241;1247;-53
2022/10/12 06:29:05;;;;;;;;;;;22.00;50.90;;;;;;493597;241;1220;-54
2022/10/12 06:31:06;;;;;;;;;;;21.90;50.80;;;;;;493635;241;1238;-53
2022/10/12 06:33:08;;;;;;;;;;;21.90;50.80;;;;;;493299;241;1222;-54
2022/10/12 06:35:09;;;;;;;;;;;22.00;50.90;;;;;;493360;241;1207;-53
2022/10/12 06:37:10;;;;;;;;;;;22.00;50.90;;;;;;494023;241;1227;-53
2022/10/12 06:39:12;;;;;;;;;;;22.00;51.00;;;;;;493435;241;2204;-54
2022/10/12 06:41:13;;;;;;;;;;;21.90;50.90;;;;;;493609;241;1569;-53
2022/10/12 06:43:14;;;;;;;;;;;21.90;50.90;;;;;;493448;241;1534;-53
2022/10/12 06:45:16;;;;;;;;;;;21.90;50.90;;;;;;493892;241;1176;-53
2022/10/12 06:47:17;;;;;;;;;;;21.90;50.90;;;;;;493578;241;1326;-53
2022/10/12 06:49:18;;;;;;;;;;;21.90;50.90;;;;;;493504;241;1318;-54
2022/10/12 06:51:20;;;;;;;;;;;21.90;50.90;;;;;;493487;241;1191;-53
2022/10/12 06:53:21;;;;;;;;;;;21.90;50.90;;;;;;493771;241;1260;-53
2022/10/12 06:55:23;;;;;;;;;;;22.00;51.00;;;;;;493543;241;1224;-53
2022/10/12 06:57:24;;;;;;;;;;;21.90;50.90;;;;;;493549;241;1510;-53
2022/10/12 06:59:25;;;;;;;;;;;22.00;50.90;;;;;;493500;241;2167;-53
2022/10/12 07:01:27;;;;;;;;;;;22.00;50.80;;;;;;493298;241;1257;-53
2022/10/12 07:03:28;;;;;;;;;;;22.00;50.70;;;;;;493361;241;1375;-55
2022/10/12 07:05:29;;;;;;;;;;;22.00;50.50;;;;;;493520;241;1206;-54
2022/10/12 07:07:31;;;;;;;;;;;22.10;50.40;;;;;;493501;241;1254;-54
2022/10/12 07:09:32;;;;;;;;;;;22.10;50.30;;;;;;493479;241;1287;-54
2022/10/12 07:11:33;;;;;;;;;;;22.10;50.20;;;;;;493352;241;1636;-54
2022/10/12 07:13:35;;;;;;;;;;;22.10;50.00;;;;;;493392;241;1211;-54
2022/10/12 07:15:36;;;;;;;;;;;22.10;50.00;;;;;;493338;241;1174;-53
2022/10/12 07:17:37;;;;;;;;;;;22.10;49.90;;;;;;493348;241;1300;-53
2022/10/12 07:19:39;;;;;;;;;;;22.10;49.80;;;;;;493502;241;2148;-53
2022/10/12 07:21:40;;;;;;;;;;;22.10;49.70;;;;;;493366;241;1321;-53
2022/10/12 07:23:41;;;;;;;;;;;22.20;49.70;;;;;;493640;241;1130;-53
2022/10/12 07:25:43;;;;;;;;;;;22.20;49.50;;;;;;493462;241;1153;-53
2022/10/12 07:27:44;;;;;;;;;;;22.20;49.60;;;;;;493201;241;1198;-53
2022/10/12 07:29:45;;;;;;;;;;;22.20;49.30;;;;;;493343;241;1189;-54
2022/10/12 07:31:47;;;;;;;;;;;22.20;49.20;;;;;;493222;241;1090;-54
2022/10/12 07:33:48;;;;;;;;;;;22.20;49.30;;;;;;493395;241;1146;-54
2022/10/12 07:35:49;;;;;;;;;;;22.20;49.20;;;;;;493272;241;1159;-54
2022/10/12 07:37:51;;;;;;;;;;;22.20;49.10;;;;;;493534;241;1177;-54
2022/10/12 07:39:55;;;;;;;;;;;22.20;49.00;;;;;;493157;241;2183;-54
2022/10/12 07:41:55;;;;;;;;;;;22.20;48.90;;;;;;493729;241;1574;-54
2022/10/12 07:43:56;;;;;;;;;;;22.20;48.90;;;;;;493527;241;1314;-53
2022/10/12 07:45:57;;;;;;;;;;;22.30;48.90;;;;;;493635;241;1248;-54
2022/10/12 07:47:59;;;;;;;;;;;22.20;48.80;;;;;;493318;241;1896;-52
2022/10/12 07:50:00;;;;;;;;;;;22.20;48.80;;;;;;492722;241;1236;-53
2022/10/12 07:52:01;;;;;;;;;;;22.20;48.70;;;;;;493698;241;1161;-54
2022/10/12 07:54:03;;;;;;;;;;;22.20;48.70;;;;;;492749;241;1226;-54
2022/10/12 07:56:04;;;;;;;;;;;22.30;48.60;;;;;;493411;241;1368;-53
2022/10/12 07:58:06;;;;;;;;;;;22.30;48.60;;;;;;493452;241;1253;-54
2022/10/12 08:00:07;;;;;;;;;;;22.30;48.50;;;;;;493577;241;2206;-53
2022/10/12 08:02:09;;;;;;;;;;;22.30;48.60;;;;;;493453;241;1209;-54
2022/10/12 08:04:10;;;;;;;;;;;22.30;48.50;;;;;;493362;241;1230;-54
2022/10/12 08:06:11;;;;;;;;;;;22.30;48.30;;;;;;493751;241;1140;-53
2022/10/12 08:08:13;;;;;;;;;;;22.30;48.30;;;;;;493372;241;1301;-54
2022/10/12 08:10:14;;;;;;;;;;;22.30;48.30;;;;;;493799;241;1295;-54
2022/10/12 08:12:16;;;;;;;;;;;22.30;48.30;;;;;;493535;241;1187;-53
2022/10/12 08:14:17;;;;;;;;;;;22.30;48.20;;;;;;493708;241;1295;-53
2022/10/12 08:16:18;;;;;;;;;;;22.40;48.20;;;;;;493383;241;1273;-53
2022/10/12 08:18:20;;;;;;;;;;;22.40;48.10;;;;;;493467;241;1443;-53
2022/10/12 08:20:21;;;;;;;;;;;22.30;48.10;;;;;;493659;241;2116;-55
2022/10/12 08:22:22;;;;;;;;;;;22.30;47.90;;;;;;493511;241;1313;-53
2022/10/12 08:24:24;;;;;;;;;;;22.40;48.00;;;;;;493431;241;1247;-54
2022/10/12 08:26:26;;;;;;;;;;;22.30;48.00;;;;;;493464;241;1181;-54
2022/10/12 08:28:26;;;;;;;;;;;22.30;47.90;;;;;;493320;241;2352;-54
2022/10/12 08:30:28;;;;;;;;;;;22.30;47.70;;;;;;493564;241;1249;-54
2022/10/12 08:32:29;;;;;;;;;;;22.30;47.70;;;;;;493598;241;1280;-53
2022/10/12 08:34:30;;;;;;;;;;;22.30;47.80;;;;;;493600;241;1699;-53
2022/10/12 08:36:32;;;;;;;;;;;22.40;47.70;;;;;;493626;241;1626;-53
2022/10/12 08:38:33;;;;;;;;;;;22.40;47.80;;;;;;493401;241;1230;-54
2022/10/12 08:40:34;;;;;;;;;;;22.30;47.70;;;;;;493630;241;2201;-53
2022/10/12 08:42:36;;;;;;;;;;;22.40;47.70;;;;;;493467;241;1201;-54
2022/10/12 08:44:37;;;;;;;;;;;22.30;47.60;;;;;;493273;241;1214;-54
2022/10/12 08:46:38;;;;;;;;;;;22.40;47.60;;;;;;492864;241;1608;-53
2022/10/12 08:48:40;;;;;;;;;;;22.40;47.50;;;;;;493694;241;1253;-53
2022/10/12 08:50:41;;;;;;;;;;;22.40;47.50;;;;;;493307;241;1275;-54
2022/10/12 08:52:42;;;;;;;;;;;22.40;47.40;;;;;;493511;241;1175;-54
2022/10/12 08:54:44;;;;;;;;;;;22.40;47.50;;;;;;493404;241;1174;-54
2022/10/12 08:56:45;;;;;;;;;;;22.40;47.40;;;;;;493377;241;1214;-53
2022/10/12 08:58:46;;;;;;;;;;;22.40;47.30;;;;;;493247;241;1359;-53
2022/10/12 09:00:48;;;;;;;;;;;22.40;47.30;;;;;;493702;241;2186;-54
2022/10/12 09:02:49;;;;;;;;;;;22.40;47.30;;;;;;493441;241;1236;-53
2022/10/12 09:04:50;;;;;;;;;;;22.40;47.20;;;;;;493480;241;1314;-53
2022/10/12 09:06:52;;;;;;;;;;;22.40;47.30;;;;;;493378;241;1186;-54
2022/10/12 09:08:53;;;;;;;;;;;22.40;47.30;;;;;;493187;241;1626;-53
2022/10/12 09:10:54;;;;;;;;;;;22.40;47.20;;;;;;493476;241;1262;-53
2022/10/12 09:12:56;;;;;;;;;;;22.40;47.20;;;;;;493371;241;1239;-53
2022/10/12 09:14:59;;;;;;;;;;;22.40;47.20;;;;;;493774;241;1619;-53
2022/10/12 09:16:58;;;;;;;;;;;22.40;47.10;;;;;;493282;241;2027;-53
2022/10/12 09:19:00;;;;;;;;;;;22.40;47.10;;;;;;492666;241;2191;-53
2022/10/12 09:21:01;;;;;;;;;;;22.40;47.10;;;;;;493731;241;1377;-53
2022/10/12 09:23:02;;;;;;;;;;;22.40;47.00;;;;;;493508;241;1251;-53
2022/10/12 09:25:04;;;;;;;;;;;22.40;46.90;;;;;;493560;241;1357;-54
2022/10/12 09:27:05;;;;;;;;;;;22.40;47.00;;;;;;493673;241;1132;-54
2022/10/12 09:29:06;;;;;;;;;;;22.40;47.00;;;;;;493491;241;1248;-54
2022/10/12 09:31:08;;;;;;;;;;;22.40;47.00;;;;;;493419;241;1347;-54
2022/10/12 09:33:09;;;;;;;;;;;22.40;46.80;;;;;;493587;241;1249;-54
2022/10/12 09:35:10;;;;;;;;;;;22.40;46.80;;;;;;493493;241;1234;-54
2022/10/12 09:37:12;;;;;;;;;;;22.40;46.80;;;;;;493543;241;1222;-54
2022/10/12 09:39:13;;;;;;;;;;;22.40;46.80;;;;;;493528;241;2179;-53
2022/10/12 09:41:14;;;;;;;;;;;22.40;46.80;;;;;;493394;241;1269;-53
2022/10/12 09:43:16;;;;;;;;;;;22.40;46.80;;;;;;493600;241;1192;-54
2022/10/12 09:45:17;;;;;;;;;;;22.50;46.80;;;;;;493372;241;1236;-54
2022/10/12 09:47:18;;;;;;;;;;;22.50;46.60;;;;;;493395;241;1214;-54
2022/10/12 09:49:20;;;;;;;;;;;22.50;46.70;;;;;;493427;241;1267;-53
2022/10/12 09:51:21;;;;;;;;;;;22.50;46.60;;;;;;493382;241;1880;-53
2022/10/12 09:53:23;;;;;;;;;;;22.50;46.70;;;;;;493118;241;1185;-53
2022/10/12 09:55:24;;;;;;;;;;;22.50;46.80;;;;;;493168;241;1257;-53
2022/10/12 09:57:26;;;;;;;;;;;22.50;46.50;;;;;;493397;241;1227;-54
2022/10/12 09:59:27;;;;;;;;;;;22.50;46.50;;;;;;493640;241;2152;-53
2022/10/12 10:01:29;;;;;;;;;;;22.50;46.50;;;;;;493701;241;1160;-54
2022/10/12 10:03:30;;;;;;;;;;;22.50;46.50;;;;;;493554;241;1233;-54
2022/10/12 10:05:31;;;;;;;;;;;22.50;46.50;;;;;;493589;241;1174;-54
2022/10/12 10:07:33;;;;;;;;;;;22.50;46.50;;;;;;493895;241;1176;-54
2022/10/12 10:09:34;;;;;;;;;;;22.50;46.50;;;;;;493523;241;1156;-54
2022/10/12 10:11:35;;;;;;;;;;;22.50;46.40;;;;;;493487;241;1093;-53
2022/10/12 10:13:37;;;;;;;;;;;22.50;46.40;;;;;;493546;241;1194;-54
2022/10/12 10:15:38;;;;;;;;;;;22.50;46.40;;;;;;493569;241;1247;-54
2022/10/12 10:17:39;;;;;;;;;;;22.50;46.30;;;;;;493691;241;1200;-54
2022/10/12 10:19:41;;;;;;;;;;;22.50;46.20;;;;;;493469;241;2153;-54
2022/10/12 10:21:42;;;;;;;;;;;22.50;46.20;;;;;;494050;241;1260;-54
2022/10/12 10:23:43;;;;;;;;;;;22.50;46.40;;;;;;493547;241;1210;-54
2022/10/12 10:25:45;;;;;;;;;;;22.50;46.30;;;;;;493423;241;1219;-52
2022/10/12 10:27:46;;;;;;;;;;;22.50;46.20;;;;;;493468;241;1341;-54
2022/10/12 10:29:48;;;;;;;;;;;22.50;46.20;;;;;;493528;241;1277;-53
2022/10/12 10:31:50;;;;;;;;;;;22.50;46.20;;;;;;493621;241;1135;-54
2022/10/12 10:33:50;;;;;;;;;;;22.50;46.20;;;;;;493659;241;2491;-54
2022/10/12 10:35:52;;;;;;;;;;;22.50;46.10;;;;;;493480;241;1291;-53
2022/10/12 10:37:54;;;;;;;;;;;22.50;46.20;;;;;;493482;241;1232;-54
2022/10/12 10:39:54;;;;;;;;;;;22.50;46.20;;;;;;493770;241;2152;-54
2022/10/12 10:41:56;;;;;;;;;;;22.50;46.20;;;;;;493530;241;1177;-53
2022/10/12 10:43:57;;;;;;;;;;;22.50;46.00;;;;;;493633;241;1230;-53
2022/10/12 10:45:58;;;;;;;;;;;22.50;46.10;;;;;;493704;241;1170;-53
2022/10/12 10:48:00;;;;;;;;;;;22.50;46.00;;;;;;493293;241;1177;-53
2022/10/12 10:50:02;;;;;;;;;;;22.50;46.00;;;;;;493493;241;1427;-53
2022/10/12 10:52:03;;;;;;;;;;;22.50;46.10;;;;;;493478;241;1240;-53
2022/10/12 10:54:04;;;;;;;;;;;22.50;46.00;;;;;;493714;241;1189;-53
2022/10/12 10:56:06;;;;;;;;;;;22.50;45.90;;;;;;493596;241;1294;-54
2022/10/12 10:58:07;;;;;;;;;;;22.50;45.90;;;;;;493402;241;1152;-54
2022/10/12 11:00:08;;;;;;;;;;;22.50;45.80;;;;;;493498;241;2171;-54
2022/10/12 11:02:10;;;;;;;;;;;22.50;45.80;;;;;;493285;241;1201;-54
2022/10/12 11:04:11;;;;;;;;;;;22.50;45.80;;;;;;493389;241;1327;-54
2022/10/12 11:06:13;;;;;;;;;;;22.50;45.80;;;;;;493440;241;1309;-54
2022/10/12 11:08:14;;;;;;;;;;;22.50;45.70;;;;;;493547;241;1273;-54
2022/10/12 11:10:15;;;;;;;;;;;22.60;45.80;;;;;;493549;241;1239;-54
2022/10/12 11:12:17;;;;;;;;;;;22.50;45.70;;;;;;493624;241;1271;-54
2022/10/12 11:14:18;;;;;;;;;;;22.60;45.80;;;;;;493479;241;1174;-53
2022/10/12 11:16:19;;;;;;;;;;;22.60;45.80;;;;;;493418;241;1269;-54
2022/10/12 11:18:21;;;;;;;;;;;22.60;45.80;;;;;;493526;241;1349;-54
2022/10/12 11:20:22;;;;;;;;;;;22.50;45.70;;;;;;493589;241;2144;-53
2022/10/12 11:22:23;;;;;;;;;;;22.60;45.70;;;;;;493487;241;1218;-54
2022/10/12 11:24:24;;;;;;;;;;;22.50;45.60;;;;;;493412;241;1178;-54
2022/10/12 11:26:26;;;;;;;;;;;22.50;45.70;;;;;;493188;241;1172;-53
2022/10/12 11:28:28;;;;;;;;;;;22.50;45.60;;;;;;493111;241;1201;-54
2022/10/12 11:30:29;;;;;;;;;;;22.60;45.70;;;;;;493223;241;2025;-54
2022/10/12 11:32:30;;;;;;;;;;;22.50;45.50;;;;;;493508;241;1287;-54
2022/10/12 11:34:32;;;;;;;;;;;22.50;45.50;;;;;;493313;241;1203;-54
2022/10/12 11:36:33;;;;;;;;;;;22.60;45.60;;;;;;493326;241;1193;-54
2022/10/12 11:38:34;;;;;;;;;;;22.60;45.60;;;;;;493617;241;1184;-54
2022/10/12 11:40:35;;;;;;;;;;;22.50;45.50;;;;;;493439;241;2207;-54
2022/10/12 11:42:37;;;;;;;;;;;22.60;45.60;;;;;;493490;241;1123;-54
2022/10/12 11:44:38;;;;;;;;;;;22.60;45.50;;;;;;493500;241;1187;-53
2022/10/12 11:46:40;;;;;;;;;;;22.50;45.40;;;;;;493489;241;1194;-54
2022/10/12 11:48:41;;;;;;;;;;;22.50;45.40;;;;;;493429;241;1215;-53
2022/10/12 11:50:42;;;;;;;;;;;22.50;45.40;;;;;;493279;241;1202;-54
2022/10/12 11:52:44;;;;;;;;;;;22.60;45.50;;;;;;493444;241;1214;-54
2022/10/12 11:54:45;;;;;;;;;;;22.60;45.40;;;;;;493546;241;1215;-53
2022/10/12 11:56:46;;;;;;;;;;;22.50;45.40;;;;;;493453;241;1140;-54